Time;durP1;ratioP1;P1;durP2;ratioP2;P2;SDS_P1;SDS_P2;PMS_P1;PMS_P2;Temp;Humidity;BMP_temperature;BMP_pressure;BME280_temperature;BME280_humidity;BME280_pressure;Samples;Min_cycle;Max_cycle;Signal;HPM_P1;HPM_P2
2021/05/07 00:01:11;;;;;;;2.03;0.57;;;;;;;3.67;84.23;89946.44;4955638;28;20027;-88
2021/05/07 00:03:37;;;;;;;3.78;0.77;;;;;;;3.82;82.41;89958.09;4956041;28;20480;-89
2021/05/07 00:06:04;;;;;;;5.28;1.00;;;;;;;3.84;83.77;89933.50;4939907;28;20393;-89
2021/05/07 00:08:31;;;;;;;5.30;1.35;;;;;;;3.85;83.77;89923.94;4939935;28;20031;-90
2021/05/07 00:10:57;;;;;;;6.03;0.90;;;;;;;3.91;83.14;89906.50;4955320;28;20023;-90
2021/05/07 00:13:23;;;;;;;6.97;1.23;;;;;;;4.02;83.26;89910.22;4939567;28;20031;-90
2021/05/07 00:15:48;;;;;;;8.45;1.25;;;;;;;4.03;84.09;89901.44;4939812;28;20113;-89
2021/05/07 00:18:14;;;;;;;8.00;2.22;;;;;;;3.98;83.49;89893.88;4957709;28;20050;-89
2021/05/07 00:20:39;;;;;;;6.95;1.38;;;;;;;4.07;84.28;89899.75;4958702;28;20022;-93
2021/05/07 00:23:04;;;;;;;3.95;1.15;;;;;;;4.13;84.28;89903.63;4943149;28;20393;-90
2021/05/07 00:25:31;;;;;;;3.78;0.90;;;;;;;4.09;84.38;89889.84;4942845;28;20034;-89
2021/05/07 00:28:03;;;;;;;5.18;1.08;;;;;;;4.14;83.99;89894.09;4942965;28;20076;-90
2021/05/07 00:30:29;;;;;;;6.78;1.20;;;;;;;4.16;84.40;89887.53;4942936;28;20071;-90
2021/05/07 00:32:54;;;;;;;5.25;1.20;;;;;;;4.29;83.67;89888.38;4958780;28;20065;-89
2021/05/07 00:35:20;;;;;;;3.92;1.27;;;;;;;4.38;83.17;89898.63;4942832;28;20074;-89
2021/05/07 00:37:45;;;;;;;9.38;1.67;;;;;;;4.35;83.39;89899.25;4942628;28;20049;-89
2021/05/07 00:40:11;;;;;;;3.50;1.30;;;;;;;4.35;83.99;89894.84;4942517;28;20031;-89
2021/05/07 00:42:37;;;;;;;3.45;1.00;;;;;;;4.41;81.68;89903.16;4942815;28;20098;-88
2021/05/07 00:45:02;;;;;;;4.93;1.20;;;;;;;4.38;82.23;89896.81;4942750;28;20109;-89
2021/05/07 00:47:28;;;;;;;2.45;0.90;;;;;;;4.38;82.28;89896.03;4958569;28;20027;-89
2021/05/07 00:49:53;;;;;;;2.55;1.00;;;;;;;4.25;82.25;89888.25;4942582;28;20033;-89
2021/05/07 00:52:18;;;;;;;2.00;0.75;;;;;;;4.21;83.10;89882.22;4958758;28;20400;-89
2021/05/07 00:54:44;;;;;;;2.75;1.13;;;;;;;4.26;82.50;89879.44;4942748;28;20019;-89
2021/05/07 00:57:09;;;;;;;3.00;1.02;;;;;;;4.20;83.65;89885.84;4942877;28;20035;-90
2021/05/07 00:59:35;;;;;;;3.88;0.90;;;;;;;4.11;83.45;89880.00;4960717;23;20031;-86
2021/05/07 01:02:00;;;;;;;2.90;0.82;;;;;;;4.09;83.82;89879.53;4964353;28;20046;-86
2021/05/07 01:04:26;;;;;;;2.90;0.95;;;;;;;4.04;83.15;89866.84;4966438;28;20064;-87
2021/05/07 01:06:52;;;;;;;2.47;0.68;;;;;;;4.10;83.24;89880.28;4950218;28;20377;-86
2021/05/07 01:09:17;;;;;;;2.13;0.60;;;;;;;4.01;82.88;89870.03;4975807;28;20042;-88
2021/05/07 01:11:43;;;;;;;1.83;0.63;;;;;;;4.02;83.24;89874.13;4983180;28;20342;-87
2021/05/07 01:14:08;;;;;;;3.90;0.80;;;;;;;3.97;83.80;89880.22;4984287;28;20025;-87
2021/05/07 01:16:33;;;;;;;2.60;0.50;;;;;;;4.02;83.90;89879.28;4942678;28;20027;-85
2021/05/07 01:18:59;;;;;;;1.88;0.55;;;;;;;3.83;84.48;89872.72;4941106;28;21322;-85
2021/05/07 01:21:26;;;;;;;1.13;0.50;;;;;;;3.93;84.71;89874.19;4956895;28;20022;-85
2021/05/07 01:23:51;;;;;;;0.73;0.40;;;;;;;3.93;83.57;89881.91;4973138;28;20018;-85
2021/05/07 01:26:16;;;;;;;2.35;0.50;;;;;;;3.91;84.13;89880.72;4940846;28;20034;-85
2021/05/07 01:28:42;;;;;;;1.23;0.45;;;;;;;3.86;83.88;89886.81;4940425;28;20073;-85
2021/05/07 01:31:07;;;;;;;2.42;0.30;;;;;;;3.99;83.24;89890.22;4972616;28;20388;-85
2021/05/07 01:33:33;;;;;;;1.85;0.40;;;;;;;3.85;83.58;89890.44;4972749;28;20031;-85
2021/05/07 01:35:58;;;;;;;0.95;0.40;;;;;;;3.81;84.00;89899.84;4956873;28;20086;-85
2021/05/07 01:38:23;;;;;;;0.80;0.20;;;;;;;3.75;84.34;89895.97;4956634;28;20027;-85
2021/05/07 01:40:50;;;;;;;0.38;0.20;;;;;;;3.73;84.10;89888.53;4940222;28;20026;-85
2021/05/07 01:43:16;;;;;;;1.10;0.10;;;;;;;3.84;83.24;89904.41;4940722;28;20486;-85
2021/05/07 01:45:43;;;;;;;0.52;0.20;;;;;;;3.67;83.43;89891.59;4940591;28;20050;-85
2021/05/07 01:48:09;;;;;;;0.32;0.20;;;;;;;3.63;83.18;89894.03;4956626;28;20027;-84
2021/05/07 01:50:36;;;;;;;0.10;0.10;;;;;;;3.60;82.49;89897.22;4956485;28;20023;-85
2021/05/07 01:53:01;;;;;;;0.38;0.10;;;;;;;3.62;82.92;89905.41;4940766;28;20377;-85
2021/05/07 01:55:28;;;;;;;0.60;0.13;;;;;;;3.66;83.14;89903.72;4956377;28;20530;-85
2021/05/07 01:57:54;;;;;;;0.10;0.10;;;;;;;3.54;83.30;89886.34;4956895;28;20034;-85
2021/05/07 02:00:21;;;;;;;0.10;0.10;;;;;;;3.42;84.03;89877.75;4955821;28;20042;-85
2021/05/07 02:02:46;;;;;;;0.00;0.00;;;;;;;3.42;84.05;89877.75;4956407;28;20397;-85
2021/05/07 02:05:12;;;;;;;0.10;0.10;;;;;;;3.50;82.76;89887.28;4940159;28;20027;-85
2021/05/07 02:07:38;;;;;;;0.22;0.10;;;;;;;3.56;82.74;89896.34;4939784;28;20027;-85
2021/05/07 02:10:11;;;;;;;0.55;0.10;;;;;;;3.51;83.32;89893.94;4940005;28;20033;-85
2021/05/07 02:12:36;;;;;;;0.52;0.10;;;;;;;3.46;83.71;89894.84;4940558;28;20088;-85
2021/05/07 02:15:05;;;;;;;0.08;0.08;;;;;;;3.34;84.58;89894.75;4956130;28;20114;-85
2021/05/07 02:17:30;;;;;;;0.63;0.10;;;;;;;3.34;84.72;89897.34;4956160;28;20036;-85
2021/05/07 02:19:56;;;;;;;0.20;0.10;;;;;;;3.34;84.40;89894.75;4955846;28;20019;-85
2021/05/07 02:22:21;;;;;;;0.10;0.10;;;;;;;3.35;83.90;89888.53;4956090;28;20511;-85
2021/05/07 02:24:46;;;;;;;1.02;0.10;;;;;;;3.44;84.44;89896.25;4952624;29;20030;-85
2021/05/07 02:27:12;;;;;;;0.00;0.00;;;;;;;3.38;84.27;89893.06;4936989;29;20027;-84
2021/05/07 02:29:37;;;;;;;0.00;0.00;;;;;;;3.29;85.24;89895.69;4936886;28;20027;-85
2021/05/07 02:32:03;;;;;;;0.30;0.10;;;;;;;3.27;85.28;89895.22;4936720;29;20019;-85
2021/05/07 02:34:28;;;;;;;0.17;0.10;;;;;;;3.35;84.77;89899.59;4952619;29;20039;-84
2021/05/07 02:36:53;;;;;;;0.00;0.00;;;;;;;3.37;83.75;89901.13;4936838;29;20030;-85
2021/05/07 02:39:19;;;;;;;0.30;0.10;;;;;;;3.33;84.94;89899.16;4920923;28;20034;-85
2021/05/07 02:41:44;;;;;;;0.80;0.10;;;;;;;3.32;85.40;89907.19;4936283;29;20034;-85
2021/05/07 02:44:10;;;;;;;0.00;0.00;;;;;;;3.51;84.68;89911.97;4936836;29;20386;-86
2021/05/07 02:46:35;;;;;;;0.10;0.10;;;;;;;3.52;83.23;89903.19;4936866;29;20031;-84
2021/05/07 02:49:02;;;;;;;0.22;0.10;;;;;;;3.46;84.63;89905.16;4920977;29;20027;-85
2021/05/07 02:51:28;;;;;;;0.10;0.10;;;;;;;3.42;84.96;89903.50;4952307;28;20481;-85
2021/05/07 02:53:53;;;;;;;0.30;0.10;;;;;;;3.53;84.54;89913.19;4921008;29;20028;-85
2021/05/07 02:56:19;;;;;;;0.00;0.00;;;;;;;3.52;85.02;89916.06;4936646;29;20029;-85
2021/05/07 02:58:44;;;;;;;0.30;0.10;;;;;;;3.55;82.41;89918.03;4921106;29;20027;-85
2021/05/07 03:01:10;;;;;;;0.10;0.10;;;;;;;3.43;84.46;89917.91;4920459;29;20440;-85
2021/05/07 03:03:35;;;;;;;0.73;0.10;;;;;;;3.46;84.40;89910.31;4936597;29;20027;-85
2021/05/07 03:06:00;;;;;;;0.10;0.10;;;;;;;3.43;84.50;89915.31;4921106;29;20030;-85
2021/05/07 03:08:26;;;;;;;1.17;0.10;;;;;;;3.49;83.16;89919.25;4935998;29;20038;-85
2021/05/07 03:10:51;;;;;;;0.45;0.20;;;;;;;3.38;83.05;89918.06;4920244;29;20030;-85
2021/05/07 03:13:17;;;;;;;0.10;0.10;;;;;;;3.42;82.97;89921.53;4936551;29;20401;-85
2021/05/07 03:15:42;;;;;;;0.10;0.10;;;;;;;3.34;83.76;89923.84;4921054;29;20024;-85
2021/05/07 03:18:20;;;;;;;1.20;0.10;;;;;;;3.31;84.12;89928.84;4936938;29;20090;-85
2021/05/07 03:20:46;;;;;;;0.45;0.10;;;;;;;3.30;83.45;89920.38;4937301;29;20430;-85
2021/05/07 03:23:12;;;;;;;0.15;0.10;;;;;;;3.39;83.97;89919.59;4939822;28;20552;-85
2021/05/07 03:25:37;;;;;;;0.57;0.10;;;;;;;3.34;83.09;89923.84;4971701;28;20114;-85
2021/05/07 03:28:03;;;;;;;0.20;0.10;;;;;;;3.31;83.06;89923.69;4988120;28;20030;-85
2021/05/07 03:30:29;;;;;;;0.50;0.17;;;;;;;3.30;83.78;89922.19;4972210;28;20034;-85
2021/05/07 03:32:54;;;;;;;1.10;0.13;;;;;;;3.32;83.71;89925.19;4987836;28;20019;-85
2021/05/07 03:35:20;;;;;;;0.75;0.10;;;;;;;3.18;84.29;89935.72;4987896;28;20081;-85
2021/05/07 03:37:45;;;;;;;0.63;0.10;;;;;;;3.11;85.12;89932.84;4999932;28;20030;-85
2021/05/07 03:40:11;;;;;;;2.08;0.10;;;;;;;3.23;84.34;89938.13;4973281;28;20031;-85
2021/05/07 03:42:36;;;;;;;0.95;0.20;;;;;;;3.21;84.34;89935.06;4973285;28;20146;-87
2021/05/07 03:45:02;;;;;;;0.43;0.10;;;;;;;3.16;84.21;89927.53;4973879;28;20022;-85
2021/05/07 03:47:28;;;;;;;1.30;0.20;;;;;;;3.20;84.28;89933.56;4989662;28;20126;-86
2021/05/07 03:49:53;;;;;;;0.77;0.20;;;;;;;3.36;84.10;89923.53;4973943;28;20480;-85
2021/05/07 03:52:19;;;;;;;1.27;0.28;;;;;;;3.32;84.26;89920.84;4992246;28;20392;-85
2021/05/07 03:54:45;;;;;;;1.98;0.43;;;;;;;3.33;84.88;89942.94;4994188;28;20033;-85
2021/05/07 03:57:10;;;;;;;2.63;0.90;;;;;;;3.47;84.49;89929.88;4978270;28;20456;-84
2021/05/07 03:59:36;;;;;;;4.28;0.95;;;;;;;3.55;84.13;89923.94;4977953;28;20054;-86
2021/05/07 04:02:01;;;;;;;5.15;0.95;;;;;;;3.56;84.91;89924.69;4977165;28;20098;-86
2021/05/07 04:04:27;;;;;;;4.15;1.08;;;;;;;3.54;84.62;89912.13;4962200;28;20031;-85
2021/05/07 04:06:52;;;;;;;5.55;1.48;;;;;;;3.63;84.09;89919.03;4994516;28;20404;-85
2021/05/07 04:09:19;;;;;;;7.40;1.20;;;;;;;3.73;83.70;89924.63;4978509;28;20046;-85
2021/05/07 04:14:13;;;;;;;10.30;1.45;;;;;;;3.68;84.77;89922.22;4978801;28;20465;-85
2021/05/07 04:16:38;;;;;;;6.93;1.50;;;;;;;3.66;85.17;89923.59;4961820;28;20029;-84
2021/05/07 04:19:03;;;;;;;6.90;0.98;;;;;;;3.73;85.07;89913.56;4978736;28;20027;-84
2021/05/07 04:21:29;;;;;;;9.65;1.50;;;;;;;3.67;84.67;89919.94;4978567;28;20488;-84
2021/05/07 04:23:54;;;;;;;6.15;1.30;;;;;;;3.69;84.72;89926.31;4994899;28;20023;-85
2021/05/07 04:26:20;;;;;;;9.40;1.48;;;;;;;3.81;84.07;89917.91;4962171;28;20035;-86
2021/05/07 04:28:46;;;;;;;7.50;1.42;;;;;;;3.82;83.67;89930.50;4978839;28;20053;-86
2021/05/07 04:31:11;;;;;;;5.85;1.13;;;;;;;3.81;83.40;89908.34;4946604;28;20023;-86
2021/05/07 04:33:36;;;;;;;7.50;1.52;;;;;;;3.86;83.46;89927.31;4946065;28;20031;-85
2021/05/07 04:36:02;;;;;;;8.13;1.55;;;;;;;3.80;83.53;89913.81;4979469;28;20031;-85
2021/05/07 04:38:27;;;;;;;8.73;1.35;;;;;;;3.77;84.16;89920.34;4979359;28;20027;-86
2021/05/07 04:40:53;;;;;;;6.85;1.42;;;;;;;3.86;83.94;89922.91;4946497;28;20502;-85
2021/05/07 04:43:18;;;;;;;8.27;1.30;;;;;;;3.74;84.72;89915.06;4961852;28;20023;-86
2021/05/07 04:45:44;;;;;;;7.50;1.70;;;;;;;3.61;84.58;89910.88;4961878;28;20085;-86
2021/05/07 04:48:13;;;;;;;8.18;1.27;;;;;;;3.65;83.64;89891.91;4962455;28;20412;-85
2021/05/07 04:50:39;;;;;;;6.45;1.30;;;;;;;3.59;83.94;89898.31;4962029;28;20026;-86
2021/05/07 04:53:04;;;;;;;5.90;1.35;;;;;;;3.55;83.40;89905.13;4961541;28;20027;-85
2021/05/07 04:55:30;;;;;;;4.57;0.98;;;;;;;3.54;83.37;89919.84;4961076;28;20034;-86
2021/05/07 04:57:55;;;;;;;4.47;0.95;;;;;;;3.52;82.25;89934.09;4960969;28;20026;-85
2021/05/07 05:00:21;;;;;;;5.47;1.08;;;;;;;3.52;82.37;89921.97;4944438;28;20046;-86
2021/05/07 05:02:46;;;;;;;3.97;0.90;;;;;;;3.56;82.04;89940.13;4943694;28;20097;-87
2021/05/07 05:05:13;;;;;;;3.78;1.00;;;;;;;3.44;83.27;89932.31;4959695;28;20049;-85
2021/05/07 05:07:45;;;;;;;4.53;0.80;;;;;;;3.50;83.46;89946.53;4944202;28;20060;-86
2021/05/07 05:10:11;;;;;;;5.30;0.65;;;;;;;3.34;84.38;89959.91;4944851;28;20026;-86
2021/05/07 05:12:36;;;;;;;4.43;0.70;;;;;;;3.30;83.81;89948.69;4960705;28;20035;-86
2021/05/07 05:15:02;;;;;;;1.77;0.65;;;;;;;3.15;84.26;89956.91;4944631;28;20030;-86
2021/05/07 05:17:27;;;;;;;2.63;0.30;;;;;;;3.20;83.74;89959.31;4961821;28;20027;-86
2021/05/07 05:19:53;;;;;;;1.30;0.38;;;;;;;3.23;84.15;89971.59;4961793;28;20077;-87
2021/05/07 05:22:18;;;;;;;2.35;0.20;;;;;;;3.14;84.04;89970.09;4962096;28;20403;-87
2021/05/07 05:24:44;;;;;;;1.08;0.22;;;;;;;3.14;83.27;89981.13;4961940;28;20034;-86
2021/05/07 05:27:09;;;;;;;0.57;0.10;;;;;;;2.95;83.53;89970.41;4962067;28;20026;-86
2021/05/07 05:29:35;;;;;;;0.52;0.30;;;;;;;3.00;83.89;89998.56;4978873;28;20034;-86
2021/05/07 05:32:00;;;;;;;0.70;0.30;;;;;;;2.86;84.05;90007.22;4978374;28;20377;-86
2021/05/07 05:34:26;;;;;;;0.60;0.25;;;;;;;2.94;85.51;90023.72;4978623;28;20170;-86
2021/05/07 05:36:51;;;;;;;0.70;0.13;;;;;;;2.88;84.13;90041.09;4980045;28;20033;-86
2021/05/07 05:39:19;;;;;;;0.35;0.10;;;;;;;2.69;84.71;90040.66;5010566;28;20023;-88
2021/05/07 05:41:45;;;;;;;0.10;0.10;;;;;;;2.53;83.19;90052.41;4998196;28;20038;-85
2021/05/07 05:44:10;;;;;;;1.17;0.10;;;;;;;2.31;83.92;90060.97;4973178;28;20038;-87
2021/05/07 05:46:36;;;;;;;0.00;0.00;;;;;;;2.16;84.12;90072.44;5000043;28;20017;-88
2021/05/07 05:49:02;;;;;;;0.10;0.10;;;;;;;2.13;83.76;90065.31;4968329;28;20031;-85
2021/05/07 05:51:27;;;;;;;1.45;0.10;;;;;;;2.12;83.54;90061.19;4974569;28;20027;-85
2021/05/07 05:53:53;;;;;;;0.00;0.00;;;;;;;2.15;83.17;90056.22;4957824;28;20404;-85
2021/05/07 05:56:18;;;;;;;0.00;0.00;;;;;;;1.99;82.27;90073.09;4958239;28;20026;-85
2021/05/07 05:58:44;;;;;;;0.00;0.00;;;;;;;1.80;82.49;90093.88;4974015;28;20073;-85
2021/05/07 06:01:09;;;;;;;0.10;0.10;;;;;;;1.65;83.17;90089.84;4954239;28;20117;-85
2021/05/07 06:03:34;;;;;;;0.00;0.00;;;;;;;1.65;82.82;90089.09;4954602;29;20032;-85
2021/05/07 06:06:00;;;;;;;0.03;0.03;;;;;;;1.48;82.83;90089.00;4939250;29;20031;-85
2021/05/07 06:08:25;;;;;;;0.10;0.10;;;;;;;1.42;81.79;90089.13;4939377;29;20401;-86
2021/05/07 06:10:50;;;;;;;0.20;0.10;;;;;;;1.48;82.61;90099.25;4955406;28;20027;-86
2021/05/07 06:13:16;;;;;;;0.00;0.00;;;;;;;1.52;82.46;90105.31;4955611;29;20030;-85
2021/05/07 06:15:41;;;;;;;0.00;0.00;;;;;;;1.53;81.08;90101.72;4954336;28;20023;-84
2021/05/07 06:18:07;;;;;;;0.03;0.03;;;;;;;1.39;82.38;90107.69;4922322;29;20019;-85
2021/05/07 06:20:32;;;;;;;0.43;0.00;;;;;;;1.03;83.29;90106.94;4938043;29;20023;-85
2021/05/07 06:22:57;;;;;;;0.00;0.00;;;;;;;1.26;82.91;90126.44;4939650;28;20023;-86
2021/05/07 06:25:25;;;;;;;0.32;0.00;;;;;;;1.31;84.19;90125.59;4976152;28;20027;-85
2021/05/07 06:27:51;;;;;;;0.63;0.20;;;;;;;1.43;83.60;90116.31;4958576;28;20034;-86
2021/05/07 06:30:16;;;;;;;0.10;0.10;;;;;;;1.68;82.89;90135.50;4973787;28;20022;-85
2021/05/07 06:32:42;;;;;;;0.08;0.08;;;;;;;1.64;82.32;90131.25;4977059;28;20041;-84
2021/05/07 06:35:08;;;;;;;0.05;0.05;;;;;;;1.70;82.94;90129.31;4992981;28;20065;-85
2021/05/07 06:37:33;;;;;;;0.08;0.08;;;;;;;1.79;81.61;90125.75;4993230;28;20022;-85
2021/05/07 06:39:59;;;;;;;0.10;0.10;;;;;;;1.70;81.35;90116.47;4991909;28;20030;-85
2021/05/07 06:42:24;;;;;;;0.10;0.10;;;;;;;1.61;82.56;90114.59;4977080;28;20404;-85
2021/05/07 06:44:50;;;;;;;0.63;0.40;;;;;;;1.61;83.69;90134.41;4961781;28;20524;-86
2021/05/07 06:47:15;;;;;;;0.30;0.20;;;;;;;1.83;83.41;90136.94;4975966;28;20019;-86
2021/05/07 06:49:41;;;;;;;0.30;0.20;;;;;;;1.94;83.02;90134.16;4974086;28;20034;-85
2021/05/07 06:52:07;;;;;;;0.52;0.10;;;;;;;2.00;83.83;90136.28;4973720;28;20389;-85
2021/05/07 06:54:32;;;;;;;0.10;0.10;;;;;;;2.14;83.56;90125.94;4965452;28;20027;-85
2021/05/07 06:56:59;;;;;;;1.25;0.20;;;;;;;2.33;82.41;90126.50;4951748;29;20047;-84
2021/05/07 06:59:25;;;;;;;0.10;0.10;;;;;;;2.12;83.62;90125.47;4963570;28;20027;-84
2021/05/07 07:01:51;;;;;;;0.10;0.10;;;;;;;2.33;84.14;90131.63;5040167;23;20107;-86
2021/05/07 07:04:16;;;;;;;0.00;0.00;;;;;;;2.49;82.28;90136.38;5011270;28;20018;-90
2021/05/07 07:06:42;;;;;;;0.28;0.10;;;;;;;2.50;82.85;90137.88;5011452;28;20026;-89
2021/05/07 07:09:07;;;;;;;0.10;0.10;;;;;;;2.47;83.45;90144.38;4979226;28;20068;-89
2021/05/07 07:11:33;;;;;;;0.00;0.00;;;;;;;2.80;80.80;90156.91;4997139;28;20496;-89
2021/05/07 07:14:00;;;;;;;0.00;0.00;;;;;;;2.62;82.99;90168.97;4975769;28;20038;-89
2021/05/07 07:16:26;;;;;;;0.03;0.03;;;;;;;2.88;83.66;90174.19;4977282;28;20050;-89
2021/05/07 07:18:52;;;;;;;0.10;0.10;;;;;;;2.98;82.82;90170.56;4988711;28;20026;-90
2021/05/07 07:21:17;;;;;;;0.00;0.00;;;;;;;3.10;81.61;90181.03;4996672;28;20049;-94
2021/05/07 07:23:42;;;;;;;0.00;0.00;;;;;;;3.15;82.59;90186.06;4999603;28;20009;-94
2021/05/07 07:26:08;;;;;;;0.10;0.10;;;;;;;2.97;81.73;90189.63;5012873;28;20037;-88
2021/05/07 07:28:35;;;;;;;0.03;0.03;;;;;;;3.07;80.75;90200.44;4987318;28;20483;-89
2021/05/07 07:31:01;;;;;;;0.00;0.00;;;;;;;2.55;81.74;90212.34;4960236;28;20031;-89
2021/05/07 07:33:26;;;;;;;0.00;0.00;;;;;;;2.48;83.71;90223.06;4960901;28;20023;-88
2021/05/07 07:35:51;;;;;;;0.00;0.00;;;;;;;2.59;81.93;90215.84;4960917;28;20057;-89
2021/05/07 07:38:17;;;;;;;0.00;0.00;;;;;;;2.44;79.77;90229.06;4969116;28;20033;-89
2021/05/07 07:40:42;;;;;;;0.10;0.10;;;;;;;2.05;82.76;90233.84;5011494;28;20037;-88
2021/05/07 07:43:08;;;;;;;0.00;0.00;;;;;;;2.18;82.55;90221.22;4995318;28;20026;-89
2021/05/07 07:45:33;;;;;;;0.10;0.05;;;;;;;2.38;81.42;90223.31;4979732;28;20114;-87
2021/05/07 07:47:59;;;;;;;0.10;0.10;;;;;;;2.48;81.07;90214.59;5012011;28;20034;-89
2021/05/07 07:50:25;;;;;;;0.03;0.03;;;;;;;2.59;82.43;90221.00;4995221;28;20030;-88
2021/05/07 07:52:50;;;;;;;0.10;0.10;;;;;;;2.85;80.97;90237.28;5012731;28;20022;-90
2021/05/07 07:55:15;;;;;;;0.10;0.10;;;;;;;2.43;81.48;90230.13;4993965;28;20062;-89
2021/05/07 07:57:42;;;;;;;0.88;0.32;;;;;;;2.22;82.64;90229.88;4999629;28;20034;-87
2021/05/07 08:00:08;;;;;;;0.20;0.20;;;;;;;2.58;82.42;90232.31;4979217;28;20041;-88
2021/05/07 08:02:33;;;;;;;0.20;0.20;;;;;;;2.34;81.75;90233.44;4992405;28;20031;-89
2021/05/07 08:04:58;;;;;;;0.22;0.22;;;;;;;2.56;81.92;90244.72;4976364;28;20022;-89
2021/05/07 08:07:24;;;;;;;0.57;0.40;;;;;;;2.29;82.15;90235.34;4959931;28;20039;-89
2021/05/07 08:09:49;;;;;;;0.43;0.28;;;;;;;2.70;82.22;90245.41;4975776;28;20370;-89
2021/05/07 08:12:15;;;;;;;0.30;0.30;;;;;;;2.56;81.01;90245.50;4977897;28;20031;-89
2021/05/07 08:14:40;;;;;;;0.30;0.30;;;;;;;2.93;81.00;90258.22;4995849;28;20030;-87
2021/05/07 08:17:06;;;;;;;0.40;0.40;;;;;;;2.86;82.08;90253.47;4994727;28;20121;-89
2021/05/07 08:19:32;;;;;;;0.28;0.28;;;;;;;3.04;83.98;90256.88;4994866;28;20389;-89
2021/05/07 08:21:57;;;;;;;0.43;0.40;;;;;;;3.23;80.26;90257.41;5010654;28;20061;-89
2021/05/07 08:24:23;;;;;;;0.35;0.28;;;;;;;3.39;81.15;90260.31;4994615;28;20026;-89
2021/05/07 08:26:48;;;;;;;0.43;0.40;;;;;;;3.60;83.01;90275.97;4994842;28;20456;-88
2021/05/07 08:29:14;;;;;;;0.68;0.40;;;;;;;3.65;81.07;90269.94;4991486;28;20037;-90
2021/05/07 08:31:39;;;;;;;0.60;0.60;;;;;;;3.75;81.34;90283.28;4942884;28;20030;-88
2021/05/07 08:34:05;;;;;;;1.30;1.00;;;;;;;3.31;80.27;90284.25;4958991;28;20467;-89
2021/05/07 08:36:30;;;;;;;2.58;1.45;;;;;;;3.07;81.63;90285.41;4959070;28;20037;-88
2021/05/07 08:38:56;;;;;;;2.40;1.70;;;;;;;2.97;82.21;90295.94;4968328;28;20038;-89
2021/05/07 08:41:21;;;;;;;2.22;1.90;;;;;;;3.08;83.18;90302.34;4958533;28;20027;-89
2021/05/07 08:43:48;;;;;;;3.22;1.92;;;;;;;3.19;81.72;90314.97;4974993;28;20031;-89
2021/05/07 08:46:14;;;;;;;2.88;2.03;;;;;;;2.81;81.66;90318.72;4986675;28;20034;-88
2021/05/07 08:48:40;;;;;;;2.30;1.80;;;;;;;3.08;81.86;90325.53;5014422;28;20026;-92
2021/05/07 08:51:06;;;;;;;1.90;1.40;;;;;;;3.10;79.54;90322.63;5030319;28;20029;-89
2021/05/07 08:53:31;;;;;;;2.53;1.85;;;;;;;2.99;80.51;90331.69;5013338;28;20022;-89
2021/05/07 08:56:01;;;;;;;2.78;1.95;;;;;;;2.97;80.31;90341.50;5017070;28;20547;-89
2021/05/07 08:58:26;;;;;;;2.60;1.85;;;;;;;2.69;82.59;90344.25;5031174;28;20026;-89
2021/05/07 09:00:52;;;;;;;2.60;1.77;;;;;;;3.13;81.25;90354.78;5013235;28;20449;-89
2021/05/07 09:03:19;;;;;;;3.35;2.00;;;;;;;3.22;80.91;90358.16;5011851;28;20077;-88
2021/05/07 09:05:44;;;;;;;3.30;1.77;;;;;;;3.02;80.25;90349.13;4977730;28;20037;-89
2021/05/07 09:08:09;;;;;;;3.20;2.20;;;;;;;3.26;81.87;90359.06;4993827;28;20403;-89
2021/05/07 09:10:37;;;;;;;2.67;1.90;;;;;;;2.99;79.91;90365.91;4993766;28;20030;-90
2021/05/07 09:13:03;;;;;;;2.95;2.15;;;;;;;3.48;80.62;90373.72;4994100;28;20026;-87
2021/05/07 09:15:42;;;;;;;2.60;1.90;;;;;;;3.69;81.82;90382.41;4982168;28;20030;-89
2021/05/07 09:18:08;;;;;;;2.97;1.90;;;;;;;3.43;78.99;90377.19;5016695;28;20506;-88
2021/05/07 09:20:40;;;;;;;3.17;2.20;;;;;;;3.16;81.61;90372.97;4993414;28;20030;-90
2021/05/07 09:23:10;;;;;;;4.03;2.53;;;;;;;3.37;82.12;90395.63;4993910;28;20089;-89
2021/05/07 09:25:36;;;;;;;3.78;2.67;;;;;;;2.93;81.56;90390.22;4993334;28;20055;-88
2021/05/07 09:28:12;;;;;;;4.30;2.70;;;;;;;2.71;83.00;90396.16;4993665;28;20027;-88
2021/05/07 09:30:38;;;;;;;3.72;2.60;;;;;;;2.86;82.33;90402.75;4993220;28;20030;-86
2021/05/07 09:33:11;;;;;;;4.28;2.47;;;;;;;2.69;81.39;90403.41;4994061;28;20030;-90
2021/05/07 09:35:37;;;;;;;4.10;3.03;;;;;;;3.13;82.58;90419.13;4977267;28;20150;-87
2021/05/07 09:38:07;;;;;;;4.68;3.10;;;;;;;2.91;80.46;90417.34;5009951;28;20042;-88
2021/05/07 09:40:35;;;;;;;4.85;3.45;;;;;;;2.68;82.24;90432.75;4976941;28;20026;-86
2021/05/07 09:43:20;;;;;;;4.90;3.38;;;;;;;2.38;82.45;90429.81;4993244;28;20014;-86
2021/05/07 09:45:49;;;;;;;;;;;;;;;2.81;80.76;90431.94;4998199;28;20476;-86
2021/05/07 09:48:25;;;;;;;5.93;3.45;;;;;;;2.80;82.48;90438.16;5012747;28;20375;-87
2021/05/07 09:51:02;;;;;;;5.38;3.35;;;;;;;2.79;83.02;90441.78;5012379;28;20072;-88
2021/05/07 09:53:30;;;;;;;5.10;3.58;;;;;;;2.73;80.79;90447.34;5013400;28;20033;-87
2021/05/07 09:56:03;;;;;;;4.60;3.35;;;;;;;2.45;81.80;90462.09;5012729;28;20045;-88
2021/05/07 09:58:29;;;;;;;5.40;3.58;;;;;;;2.33;81.79;90462.56;5012831;28;20034;-87
2021/05/07 10:00:56;;;;;;;5.90;4.43;;;;;;;2.30;82.98;90458.03;4995634;28;20026;-87
2021/05/07 10:03:22;;;;;;;5.40;3.63;;;;;;;2.39;82.76;90466.56;5010224;28;20026;-86
2021/05/07 10:05:47;;;;;;;5.10;3.78;;;;;;;2.57;80.49;90472.63;5009555;28;20022;-88
2021/05/07 10:08:14;;;;;;;6.15;4.18;;;;;;;2.75;79.61;90468.38;4975556;28;20381;-87
2021/05/07 10:10:42;;;;;;;5.40;3.75;;;;;;;3.08;80.08;90477.44;4976594;28;20097;-90
2021/05/07 10:13:12;;;;;;;4.68;3.42;;;;;;;2.84;77.71;90475.13;4978191;28;20022;-87
2021/05/07 10:15:38;;;;;;;7.13;3.95;;;;;;;3.03;80.88;90480.09;4974037;28;20551;-87
2021/05/07 10:18:08;;;;;;;5.97;4.72;;;;;;;3.34;81.91;90485.31;4974135;28;20114;-87
2021/05/07 10:20:38;;;;;;;4.25;3.17;;;;;;;3.80;77.42;90489.34;4974297;28;20033;-88
2021/05/07 10:23:19;;;;;;;4.70;3.40;;;;;;;3.34;77.49;90490.47;4965116;28;20014;-87
2021/05/07 10:26:11;;;;;;;4.45;3.03;;;;;;;3.64;75.72;90483.06;4993699;28;20034;-87
2021/05/07 10:28:57;;;;;;;8.75;3.53;;;;;;;3.68;78.38;90498.69;4993547;28;20034;-88
2021/05/07 10:31:22;;;;;;;4.95;3.22;;;;;;;3.65;75.92;90492.31;4975024;28;20033;-88
2021/05/07 10:34:04;;;;;;;4.80;3.10;;;;;;;4.07;75.74;90505.69;4993270;28;20026;-87
2021/05/07 10:36:49;;;;;;;4.82;3.67;;;;;;;4.02;76.24;90503.22;4960813;28;20105;-86
2021/05/07 10:39:32;;;;;;;;;;;;;;;4.13;77.06;90501.16;4993343;28;20053;-88
2021/05/07 10:41:59;;;;;;;5.47;3.40;;;;;;;4.32;76.86;90505.00;4976252;28;19913;-87
2021/05/07 10:44:25;;;;;;;4.78;2.65;;;;;;;4.48;70.89;90515.66;4977052;28;20049;-87
2021/05/07 10:46:58;;;;;;;4.55;3.35;;;;;;;4.74;74.83;90510.56;5023638;28;20044;-89
2021/05/07 10:49:37;;;;;;;2.75;2.33;;;;;;;4.45;69.98;90520.66;5016354;28;20018;-87
2021/05/07 10:52:05;;;;;;;4.03;3.03;;;;;;;4.78;70.46;90524.41;4992357;28;20026;-85
2021/05/07 10:54:36;;;;;;;4.80;3.20;;;;;;;4.78;70.58;90526.97;4992570;28;20631;-89
2021/05/07 10:57:01;;;;;;;5.03;3.08;;;;;;;4.76;70.47;90539.41;4976410;28;20026;-87
2021/05/07 10:59:27;;;;;;;6.63;3.53;;;;;;;4.66;71.83;90542.28;4992347;28;20046;-87
2021/05/07 11:01:57;;;;;;;3.78;2.63;;;;;;;4.71;69.20;90542.16;4974754;28;20472;-87
2021/05/07 11:04:22;;;;;;;4.50;3.20;;;;;;;4.96;73.78;90539.91;4976628;28;20022;-87
2021/05/07 11:06:58;;;;;;;3.97;2.58;;;;;;;5.07;68.53;90545.53;4960056;28;20032;-87
2021/05/07 11:09:24;;;;;;;4.40;2.83;;;;;;;4.98;69.96;90548.09;4992446;28;20029;-87
2021/05/07 11:11:50;;;;;;;3.72;2.28;;;;;;;5.25;64.89;90560.75;4975600;28;20022;-87
2021/05/07 11:14:17;;;;;;;3.20;2.10;;;;;;;5.11;64.72;90556.78;5008260;28;20022;-88
2021/05/07 11:16:43;;;;;;;3.75;2.50;;;;;;;5.17;66.31;90560.75;5007166;28;20360;-87
2021/05/07 11:19:28;;;;;;;3.78;2.42;;;;;;;4.68;66.58;90554.91;4976164;28;20407;-87
2021/05/07 11:21:55;;;;;;;;;;;;;;;5.07;68.52;90563.63;4975602;28;20026;-88
2021/05/07 11:24:27;;;;;;;3.25;2.10;;;;;;;4.92;67.17;90565.59;4975539;28;20334;-87
2021/05/07 11:26:53;;;;;;;4.72;2.58;;;;;;;4.99;67.55;90565.13;4991472;28;20034;-87
2021/05/07 11:29:31;;;;;;;3.67;2.22;;;;;;;5.08;69.91;90573.63;4991758;28;20045;-87
2021/05/07 11:32:09;;;;;;;2.97;2.10;;;;;;;5.44;66.29;90577.75;4991493;28;20030;-86
2021/05/07 11:34:34;;;;;;;2.63;1.90;;;;;;;4.74;62.44;90575.13;5008337;28;20034;-87
2021/05/07 11:37:00;;;;;;;2.70;2.08;;;;;;;5.38;67.31;90568.66;4991785;28;20026;-88
2021/05/07 11:39:26;;;;;;;5.80;2.60;;;;;;;5.65;67.92;90570.91;4975666;28;20073;-86
2021/05/07 11:41:51;;;;;;;4.20;2.15;;;;;;;5.48;63.41;90570.94;4975495;28;20080;-87